LRBC/BCM METAR and TAF weather

Enter ICAO airport designator
Station Type Date Time Source
LRBC METAR 2023/02/05 15:00 UTC NOAA

LRBC 051500Z 34018KT 9999 FEW024 BKN043 M03/M08 Q1026


Station Type Date Time Source
LRBC Decoded METAR 2023/02/05 15:00 UTC NOAA

Bacau, Romania (LRBC) 46-35N 026-58E 190M
Feb 05, 2023 - 10:00 AM EST / 2023.02.05 1500 UTC
Wind: from the NNW (340 degrees) at 21 MPH (18 KT):0
Visibility: greater than 7 mile(s):0
Sky conditions: mostly cloudy
Temperature: 26 F (-3 C)
Windchill: 12 F (-11 C):1
Dew Point: 17 F (-8 C)
Relative Humidity: 68%
Pressure (altimeter): 30.30 in. Hg (1026 hPa)
ob: LRBC 051500Z 34018KT 9999 FEW024 BKN043 M03/M08 Q1026
cycle: 15

Station Type Date Time Source
LRBC TAF 2010/08/31 20:30 UTC NOAA

TAF LRBC 312030Z 3121/0203 CNL

Example: see airport list